sensor_id;sensor_type;location;lat;lon;timestamp;P1;durP1;ratioP1;P2;durP2;ratioP2
7523;SDS011;3803;51.666;7.630;2023-07-13T00:00:13;8.90;;;4.77;;
7523;SDS011;3803;51.666;7.630;2023-07-13T00:00:36;10.05;;;4.70;;
7523;SDS011;3803;51.666;7.630;2023-07-13T00:00:57;9.30;;;4.80;;
7523;SDS011;3803;51.666;7.630;2023-07-13T00:01:18;8.83;;;4.80;;
7523;SDS011;3803;51.666;7.630;2023-07-13T00:01:38;6.57;;;4.60;;
7523;SDS011;3803;51.666;7.630;2023-07-13T00:01:59;6.57;;;4.80;;
7523;SDS011;3803;51.666;7.630;2023-07-13T00:02:20;7.40;;;4.80;;
7523;SDS011;3803;51.666;7.630;2023-07-13T00:02:41;8.90;;;4.80;;
7523;SDS011;3803;51.666;7.630;2023-07-13T00:03:02;9.55;;;4.70;;
7523;SDS011;3803;51.666;7.630;2023-07-13T00:03:23;11.10;;;4.80;;
7523;SDS011;3803;51.666;7.630;2023-07-13T00:03:44;9.55;;;4.95;;
7523;SDS011;3803;51.666;7.630;2023-07-13T00:04:05;9.18;;;4.70;;
7523;SDS011;3803;51.666;7.630;2023-07-13T00:04:26;12.00;;;4.90;;
7523;SDS011;3803;51.666;7.630;2023-07-13T00:04:46;12.57;;;4.97;;
7523;SDS011;3803;51.666;7.630;2023-07-13T00:05:07;11.70;;;4.75;;
7523;SDS011;3803;51.666;7.630;2023-07-13T00:05:28;8.60;;;4.50;;
7523;SDS011;3803;51.666;7.630;2023-07-13T00:05:57;9.43;;;4.35;;
7523;SDS011;3803;51.666;7.630;2023-07-13T00:06:19;12.00;;;4.78;;
7523;SDS011;3803;51.666;7.630;2023-07-13T00:06:40;12.45;;;4.95;;
7523;SDS011;3803;51.666;7.630;2023-07-13T00:07:05;9.93;;;4.88;;
7523;SDS011;3803;51.666;7.630;2023-07-13T00:07:25;8.10;;;4.67;;
7523;SDS011;3803;51.666;7.630;2023-07-13T00:07:46;7.97;;;4.45;;
7523;SDS011;3803;51.666;7.630;2023-07-13T00:08:07;9.35;;;4.68;;
7523;SDS011;3803;51.666;7.630;2023-07-13T00:08:30;8.73;;;4.40;;
7523;SDS011;3803;51.666;7.630;2023-07-13T00:08:52;8.05;;;4.20;;
7523;SDS011;3803;51.666;7.630;2023-07-13T00:09:14;10.57;;;4.20;;
7523;SDS011;3803;51.666;7.630;2023-07-13T00:09:36;11.07;;;4.57;;
7523;SDS011;3803;51.666;7.630;2023-07-13T00:09:58;11.48;;;4.55;;
7523;SDS011;3803;51.666;7.630;2023-07-13T00:10:19;8.38;;;4.40;;
7523;SDS011;3803;51.666;7.630;2023-07-13T00:10:41;7.53;;;4.53;;
7523;SDS011;3803;51.666;7.630;2023-07-13T00:11:02;9.35;;;4.70;;
7523;SDS011;3803;51.666;7.630;2023-07-13T00:11:23;9.02;;;4.68;;
7523;SDS011;3803;51.666;7.630;2023-07-13T00:11:44;9.60;;;4.70;;
7523;SDS011;3803;51.666;7.630;2023-07-13T00:12:21;8.15;;;4.32;;
7523;SDS011;3803;51.666;7.630;2023-07-13T00:12:44;8.60;;;4.55;;
7523;SDS011;3803;51.666;7.630;2023-07-13T00:13:05;8.80;;;4.85;;
7523;SDS011;3803;51.666;7.630;2023-07-13T00:13:25;9.35;;;4.97;;
7523;SDS011;3803;51.666;7.630;2023-07-13T00:13:46;8.03;;;4.93;;
7523;SDS011;3803;51.666;7.630;2023-07-13T00:14:07;9.05;;;4.90;;
7523;SDS011;3803;51.666;7.630;2023-07-13T00:14:28;8.82;;;4.88;;
7523;SDS011;3803;51.666;7.630;2023-07-13T00:14:49;8.18;;;4.63;;
7523;SDS011;3803;51.666;7.630;2023-07-13T00:15:14;7.63;;;4.70;;
7523;SDS011;3803;51.666;7.630;2023-07-13T00:15:37;8.88;;;4.70;;
7523;SDS011;3803;51.666;7.630;2023-07-13T00:15:58;9.48;;;4.60;;
7523;SDS011;3803;51.666;7.630;2023-07-13T00:16:19;9.38;;;4.75;;
7523;SDS011;3803;51.666;7.630;2023-07-13T00:16:40;7.85;;;4.60;;
7523;SDS011;3803;51.666;7.630;2023-07-13T00:17:12;8.07;;;4.72;;
7523;SDS011;3803;51.666;7.630;2023-07-13T00:17:33;9.25;;;4.95;;
7523;SDS011;3803;51.666;7.630;2023-07-13T00:17:54;10.20;;;5.10;;
7523;SDS011;3803;51.666;7.630;2023-07-13T00:18:16;11.25;;;5.22;;
7523;SDS011;3803;51.666;7.630;2023-07-13T00:18:37;10.40;;;5.20;;
7523;SDS011;3803;51.666;7.630;2023-07-13T00:18:58;10.55;;;5.35;;
7523;SDS011;3803;51.666;7.630;2023-07-13T00:19:20;8.68;;;4.95;;
7523;SDS011;3803;51.666;7.630;2023-07-13T00:19:41;8.40;;;4.82;;
7523;SDS011;3803;51.666;7.630;2023-07-13T00:20:02;7.77;;;4.60;;
7523;SDS011;3803;51.666;7.630;2023-07-13T00:20:24;8.90;;;4.80;;
7523;SDS011;3803;51.666;7.630;2023-07-13T00:20:45;8.23;;;4.25;;
7523;SDS011;3803;51.666;7.630;2023-07-13T00:21:06;8.90;;;3.97;;
7523;SDS011;3803;51.666;7.630;2023-07-13T00:21:27;8.65;;;4.10;;
7523;SDS011;3803;51.666;7.630;2023-07-13T00:21:48;7.88;;;4.30;;
7523;SDS011;3803;51.666;7.630;2023-07-13T00:22:09;7.77;;;4.70;;
7523;SDS011;3803;51.666;7.630;2023-07-13T00:22:29;8.80;;;4.90;;
7523;SDS011;3803;51.666;7.630;2023-07-13T00:22:51;8.77;;;4.95;;
7523;SDS011;3803;51.666;7.630;2023-07-13T00:23:13;9.40;;;4.75;;
7523;SDS011;3803;51.666;7.630;2023-07-13T00:23:35;7.68;;;4.45;;
7523;SDS011;3803;51.666;7.630;2023-07-13T00:23:58;6.97;;;4.40;;
7523;SDS011;3803;51.666;7.630;2023-07-13T00:24:21;8.10;;;4.43;;
7523;SDS011;3803;51.666;7.630;2023-07-13T00:24:44;9.68;;;4.53;;
7523;SDS011;3803;51.666;7.630;2023-07-13T00:25:05;9.35;;;4.47;;
7523;SDS011;3803;51.666;7.630;2023-07-13T00:25:26;10.23;;;4.65;;
7523;SDS011;3803;51.666;7.630;2023-07-13T00:25:48;8.40;;;4.60;;
7523;SDS011;3803;51.666;7.630;2023-07-13T00:26:11;9.70;;;4.68;;
7523;SDS011;3803;51.666;7.630;2023-07-13T00:26:33;10.27;;;4.60;;
7523;SDS011;3803;51.666;7.630;2023-07-13T00:26:54;9.98;;;4.68;;
7523;SDS011;3803;51.666;7.630;2023-07-13T00:27:14;7.53;;;4.80;;
7523;SDS011;3803;51.666;7.630;2023-07-13T00:27:35;10.00;;;5.13;;
7523;SDS011;3803;51.666;7.630;2023-07-13T00:27:56;12.60;;;5.30;;
7523;SDS011;3803;51.666;7.630;2023-07-13T00:28:17;14.48;;;5.32;;
7523;SDS011;3803;51.666;7.630;2023-07-13T00:28:38;12.75;;;4.90;;
7523;SDS011;3803;51.666;7.630;2023-07-13T00:29:00;10.00;;;4.80;;
7523;SDS011;3803;51.666;7.630;2023-07-13T00:29:23;6.53;;;4.43;;
7523;SDS011;3803;51.666;7.630;2023-07-13T00:29:44;8.30;;;4.70;;
7523;SDS011;3803;51.666;7.630;2023-07-13T00:30:06;8.50;;;4.70;;
7523;SDS011;3803;51.666;7.630;2023-07-13T00:30:27;8.25;;;4.55;;
7523;SDS011;3803;51.666;7.630;2023-07-13T00:30:47;6.70;;;4.45;;
7523;SDS011;3803;51.666;7.630;2023-07-13T00:31:09;7.00;;;4.50;;
7523;SDS011;3803;51.666;7.630;2023-07-13T00:31:31;7.78;;;4.60;;
7523;SDS011;3803;51.666;7.630;2023-07-13T00:31:51;10.43;;;4.35;;
7523;SDS011;3803;51.666;7.630;2023-07-13T00:32:12;10.53;;;4.43;;
7523;SDS011;3803;51.666;7.630;2023-07-13T00:32:33;10.25;;;4.35;;
7523;SDS011;3803;51.666;7.630;2023-07-13T00:32:53;8.80;;;4.50;;
7523;SDS011;3803;51.666;7.630;2023-07-13T00:33:14;8.40;;;4.23;;
7523;SDS011;3803;51.666;7.630;2023-07-13T00:33:35;8.60;;;4.40;;
7523;SDS011;3803;51.666;7.630;2023-07-13T00:33:56;7.40;;;4.72;;
7523;SDS011;3803;51.666;7.630;2023-07-13T00:34:17;9.85;;;4.97;;
7523;SDS011;3803;51.666;7.630;2023-07-13T00:34:38;10.13;;;5.00;;
7523;SDS011;3803;51.666;7.630;2023-07-13T00:34:59;9.05;;;4.65;;
7523;SDS011;3803;51.666;7.630;2023-07-13T00:35:20;8.52;;;4.97;;
7523;SDS011;3803;51.666;7.630;2023-07-13T00:35:41;7.83;;;4.50;;
7523;SDS011;3803;51.666;7.630;2023-07-13T00:36:04;7.28;;;4.43;;
7523;SDS011;3803;51.666;7.630;2023-07-13T00:36:25;9.00;;;4.43;;
7523;SDS011;3803;51.666;7.630;2023-07-13T00:36:46;9.32;;;4.63;;
7523;SDS011;3803;51.666;7.630;2023-07-13T00:37:07;8.50;;;4.88;;
7523;SDS011;3803;51.666;7.630;2023-07-13T00:37:29;6.28;;;4.68;;
7523;SDS011;3803;51.666;7.630;2023-07-13T00:37:51;7.05;;;4.68;;
7523;SDS011;3803;51.666;7.630;2023-07-13T00:38:12;7.00;;;4.53;;
7523;SDS011;3803;51.666;7.630;2023-07-13T00:38:32;6.72;;;4.63;;
7523;SDS011;3803;51.666;7.630;2023-07-13T00:38:53;6.90;;;4.60;;
7523;SDS011;3803;51.666;7.630;2023-07-13T00:39:14;7.80;;;4.57;;
7523;SDS011;3803;51.666;7.630;2023-07-13T00:40:19;10.93;;;4.90;;
7523;SDS011;3803;51.666;7.630;2023-07-13T00:40:39;10.95;;;4.95;;
7523;SDS011;3803;51.666;7.630;2023-07-13T00:41:00;8.38;;;4.90;;
7523;SDS011;3803;51.666;7.630;2023-07-13T00:41:24;8.73;;;4.65;;
7523;SDS011;3803;51.666;7.630;2023-07-13T00:41:44;8.73;;;4.45;;
7523;SDS011;3803;51.666;7.630;2023-07-13T00:42:05;9.50;;;4.57;;
7523;SDS011;3803;51.666;7.630;2023-07-13T00:42:32;8.27;;;4.60;;
7523;SDS011;3803;51.666;7.630;2023-07-13T00:42:52;8.07;;;4.30;;
7523;SDS011;3803;51.666;7.630;2023-07-13T00:43:18;7.45;;;4.10;;
7523;SDS011;3803;51.666;7.630;2023-07-13T00:43:40;6.68;;;4.45;;
7523;SDS011;3803;51.666;7.630;2023-07-13T00:44:04;6.95;;;4.85;;
7523;SDS011;3803;51.666;7.630;2023-07-13T00:44:26;7.20;;;4.95;;
7523;SDS011;3803;51.666;7.630;2023-07-13T00:46:14;6.93;;;4.40;;
7523;SDS011;3803;51.666;7.630;2023-07-13T00:46:40;7.40;;;4.40;;
7523;SDS011;3803;51.666;7.630;2023-07-13T00:47:01;8.27;;;4.40;;
7523;SDS011;3803;51.666;7.630;2023-07-13T00:48:07;7.57;;;4.18;;
7523;SDS011;3803;51.666;7.630;2023-07-13T00:48:28;7.43;;;4.30;;
7523;SDS011;3803;51.666;7.630;2023-07-13T00:48:54;7.20;;;4.53;;
7523;SDS011;3803;51.666;7.630;2023-07-13T00:49:17;6.32;;;4.15;;
7523;SDS011;3803;51.666;7.630;2023-07-13T00:49:40;7.65;;;4.20;;
7523;SDS011;3803;51.666;7.630;2023-07-13T00:50:01;10.97;;;4.23;;
7523;SDS011;3803;51.666;7.630;2023-07-13T00:50:24;11.93;;;4.68;;
7523;SDS011;3803;51.666;7.630;2023-07-13T00:50:47;11.10;;;4.45;;
7523;SDS011;3803;51.666;7.630;2023-07-13T00:51:44;9.05;;;4.30;;
7523;SDS011;3803;51.666;7.630;2023-07-13T00:52:08;7.30;;;4.40;;
7523;SDS011;3803;51.666;7.630;2023-07-13T00:52:30;7.10;;;4.60;;
7523;SDS011;3803;51.666;7.630;2023-07-13T00:52:53;7.30;;;4.50;;
7523;SDS011;3803;51.666;7.630;2023-07-13T00:53:15;7.95;;;4.70;;
7523;SDS011;3803;51.666;7.630;2023-07-13T00:53:36;7.47;;;4.57;;
7523;SDS011;3803;51.666;7.630;2023-07-13T00:53:57;7.45;;;4.47;;
7523;SDS011;3803;51.666;7.630;2023-07-13T00:54:22;7.70;;;4.13;;
7523;SDS011;3803;51.666;7.630;2023-07-13T00:54:55;7.93;;;4.32;;
7523;SDS011;3803;51.666;7.630;2023-07-13T00:55:16;7.20;;;4.05;;
7523;SDS011;3803;51.666;7.630;2023-07-13T00:55:38;7.13;;;4.00;;
7523;SDS011;3803;51.666;7.630;2023-07-13T00:55:59;6.10;;;3.90;;
7523;SDS011;3803;51.666;7.630;2023-07-13T00:56:21;6.32;;;4.20;;
7523;SDS011;3803;51.666;7.630;2023-07-13T00:56:43;6.20;;;4.35;;
7523;SDS011;3803;51.666;7.630;2023-07-13T00:57:08;7.72;;;4.40;;
7523;SDS011;3803;51.666;7.630;2023-07-13T00:57:34;8.30;;;4.38;;
7523;SDS011;3803;51.666;7.630;2023-07-13T00:58:03;8.10;;;4.18;;
7523;SDS011;3803;51.666;7.630;2023-07-13T00:58:39;6.70;;;4.10;;
7523;SDS011;3803;51.666;7.630;2023-07-13T00:59:00;6.75;;;4.32;;
7523;SDS011;3803;51.666;7.630;2023-07-13T00:59:23;6.68;;;4.32;;
7523;SDS011;3803;51.666;7.630;2023-07-13T00:59:45;7.35;;;4.20;;
7523;SDS011;3803;51.666;7.630;2023-07-13T01:00:09;9.85;;;4.30;;
7523;SDS011;3803;51.666;7.630;2023-07-13T01:00:32;11.80;;;4.75;;
7523;SDS011;3803;51.666;7.630;2023-07-13T01:00:56;9.48;;;4.70;;
7523;SDS011;3803;51.666;7.630;2023-07-13T01:01:17;8.90;;;4.90;;
7523;SDS011;3803;51.666;7.630;2023-07-13T01:01:38;8.10;;;5.00;;
7523;SDS011;3803;51.666;7.630;2023-07-13T01:01:59;9.48;;;5.25;;
7523;SDS011;3803;51.666;7.630;2023-07-13T01:02:22;9.50;;;5.43;;
7523;SDS011;3803;51.666;7.630;2023-07-13T01:02:44;7.63;;;5.20;;
7523;SDS011;3803;51.666;7.630;2023-07-13T01:03:06;7.57;;;5.00;;
7523;SDS011;3803;51.666;7.630;2023-07-13T01:03:27;7.35;;;4.75;;
7523;SDS011;3803;51.666;7.630;2023-07-13T01:03:48;7.65;;;4.70;;
7523;SDS011;3803;51.666;7.630;2023-07-13T01:04:09;7.70;;;4.60;;
7523;SDS011;3803;51.666;7.630;2023-07-13T01:04:30;8.27;;;4.72;;
7523;SDS011;3803;51.666;7.630;2023-07-13T01:04:51;9.18;;;4.70;;
7523;SDS011;3803;51.666;7.630;2023-07-13T01:05:12;9.88;;;4.70;;
7523;SDS011;3803;51.666;7.630;2023-07-13T01:05:35;13.65;;;4.97;;
7523;SDS011;3803;51.666;7.630;2023-07-13T01:05:57;13.52;;;5.18;;
7523;SDS011;3803;51.666;7.630;2023-07-13T01:06:18;8.75;;;5.00;;
7523;SDS011;3803;51.666;7.630;2023-07-13T01:06:38;8.00;;;4.70;;
7523;SDS011;3803;51.666;7.630;2023-07-13T01:07:00;6.10;;;4.20;;
7523;SDS011;3803;51.666;7.630;2023-07-13T01:07:22;6.32;;;4.28;;
7523;SDS011;3803;51.666;7.630;2023-07-13T01:07:43;7.90;;;4.40;;
7523;SDS011;3803;51.666;7.630;2023-07-13T01:08:05;9.85;;;4.70;;
7523;SDS011;3803;51.666;7.630;2023-07-13T01:08:27;11.77;;;4.75;;
7523;SDS011;3803;51.666;7.630;2023-07-13T01:08:47;11.82;;;4.80;;
7523;SDS011;3803;51.666;7.630;2023-07-13T01:09:08;11.50;;;5.00;;
7523;SDS011;3803;51.666;7.630;2023-07-13T01:09:30;10.60;;;4.95;;
7523;SDS011;3803;51.666;7.630;2023-07-13T01:09:50;10.85;;;4.85;;
7523;SDS011;3803;51.666;7.630;2023-07-13T01:10:13;10.75;;;4.45;;
7523;SDS011;3803;51.666;7.630;2023-07-13T01:10:34;10.60;;;4.53;;
7523;SDS011;3803;51.666;7.630;2023-07-13T01:10:59;9.30;;;4.50;;
7523;SDS011;3803;51.666;7.630;2023-07-13T01:11:20;7.95;;;4.68;;
7523;SDS011;3803;51.666;7.630;2023-07-13T01:11:42;6.75;;;4.65;;
7523;SDS011;3803;51.666;7.630;2023-07-13T01:12:02;6.55;;;4.78;;
7523;SDS011;3803;51.666;7.630;2023-07-13T01:12:24;8.15;;;4.60;;
7523;SDS011;3803;51.666;7.630;2023-07-13T01:12:45;8.80;;;4.40;;
7523;SDS011;3803;51.666;7.630;2023-07-13T01:13:06;12.70;;;4.70;;
7523;SDS011;3803;51.666;7.630;2023-07-13T01:13:28;11.73;;;4.72;;
7523;SDS011;3803;51.666;7.630;2023-07-13T01:13:54;11.40;;;4.57;;
7523;SDS011;3803;51.666;7.630;2023-07-13T01:14:15;7.55;;;4.20;;
7523;SDS011;3803;51.666;7.630;2023-07-13T01:14:37;7.30;;;4.20;;
7523;SDS011;3803;51.666;7.630;2023-07-13T01:14:59;6.57;;;4.20;;
7523;SDS011;3803;51.666;7.630;2023-07-13T01:16:11;7.47;;;4.40;;
7523;SDS011;3803;51.666;7.630;2023-07-13T01:16:38;6.80;;;4.40;;
7523;SDS011;3803;51.666;7.630;2023-07-13T01:17:01;6.07;;;4.13;;
7523;SDS011;3803;51.666;7.630;2023-07-13T01:17:23;6.80;;;4.43;;
7523;SDS011;3803;51.666;7.630;2023-07-13T01:17:44;7.63;;;4.60;;
7523;SDS011;3803;51.666;7.630;2023-07-13T01:18:09;8.45;;;4.85;;
7523;SDS011;3803;51.666;7.630;2023-07-13T01:18:31;8.15;;;4.50;;
7523;SDS011;3803;51.666;7.630;2023-07-13T01:18:53;8.52;;;4.32;;
7523;SDS011;3803;51.666;7.630;2023-07-13T01:20:00;7.32;;;4.30;;
7523;SDS011;3803;51.666;7.630;2023-07-13T01:20:21;9.80;;;4.40;;
7523;SDS011;3803;51.666;7.630;2023-07-13T01:20:52;8.98;;;4.25;;
7523;SDS011;3803;51.666;7.630;2023-07-13T01:21:16;7.63;;;4.40;;
7523;SDS011;3803;51.666;7.630;2023-07-13T01:21:39;8.43;;;4.38;;
7523;SDS011;3803;51.666;7.630;2023-07-13T01:22:04;11.73;;;4.78;;
7523;SDS011;3803;51.666;7.630;2023-07-13T01:22:38;11.93;;;4.93;;
7523;SDS011;3803;51.666;7.630;2023-07-13T01:22:58;8.93;;;4.55;;
7523;SDS011;3803;51.666;7.630;2023-07-13T01:23:20;7.30;;;4.25;;
7523;SDS011;3803;51.666;7.630;2023-07-13T01:23:42;5.38;;;3.67;;
7523;SDS011;3803;51.666;7.630;2023-07-13T01:24:04;5.47;;;3.70;;
7523;SDS011;3803;51.666;7.630;2023-07-13T01:24:25;5.68;;;3.90;;
7523;SDS011;3803;51.666;7.630;2023-07-13T01:24:47;6.13;;;4.35;;
7523;SDS011;3803;51.666;7.630;2023-07-13T01:25:09;7.22;;;4.65;;
7523;SDS011;3803;51.666;7.630;2023-07-13T01:25:30;9.40;;;4.53;;
7523;SDS011;3803;51.666;7.630;2023-07-13T01:25:51;10.70;;;4.30;;
7523;SDS011;3803;51.666;7.630;2023-07-13T01:26:12;10.00;;;3.90;;
7523;SDS011;3803;51.666;7.630;2023-07-13T01:26:33;8.88;;;3.80;;
7523;SDS011;3803;51.666;7.630;2023-07-13T01:26:54;6.97;;;3.78;;
7523;SDS011;3803;51.666;7.630;2023-07-13T01:27:16;8.25;;;3.70;;
7523;SDS011;3803;51.666;7.630;2023-07-13T01:27:40;11.38;;;4.00;;
7523;SDS011;3803;51.666;7.630;2023-07-13T01:28:04;13.93;;;4.13;;
7523;SDS011;3803;51.666;7.630;2023-07-13T01:28:27;12.75;;;4.07;;
7523;SDS011;3803;51.666;7.630;2023-07-13T01:28:49;9.90;;;4.05;;
7523;SDS011;3803;51.666;7.630;2023-07-13T01:29:09;9.73;;;4.22;;
7523;SDS011;3803;51.666;7.630;2023-07-13T01:29:33;8.32;;;4.10;;
7523;SDS011;3803;51.666;7.630;2023-07-13T01:30:01;6.57;;;3.80;;
7523;SDS011;3803;51.666;7.630;2023-07-13T01:30:24;7.18;;;3.90;;
7523;SDS011;3803;51.666;7.630;2023-07-13T01:30:45;7.50;;;4.07;;
7523;SDS011;3803;51.666;7.630;2023-07-13T01:31:07;6.95;;;3.70;;
7523;SDS011;3803;51.666;7.630;2023-07-13T01:31:29;5.95;;;3.47;;
7523;SDS011;3803;51.666;7.630;2023-07-13T01:31:52;7.72;;;3.50;;
7523;SDS011;3803;51.666;7.630;2023-07-13T01:32:14;8.20;;;3.67;;
7523;SDS011;3803;51.666;7.630;2023-07-13T01:32:37;8.90;;;3.90;;
7523;SDS011;3803;51.666;7.630;2023-07-13T01:32:58;7.32;;;4.10;;
7523;SDS011;3803;51.666;7.630;2023-07-13T01:33:20;9.38;;;4.30;;
7523;SDS011;3803;51.666;7.630;2023-07-13T01:33:41;8.63;;;4.18;;
7523;SDS011;3803;51.666;7.630;2023-07-13T01:34:02;7.63;;;3.80;;
7523;SDS011;3803;51.666;7.630;2023-07-13T01:34:23;8.80;;;3.70;;
7523;SDS011;3803;51.666;7.630;2023-07-13T01:34:43;9.13;;;3.73;;
7523;SDS011;3803;51.666;7.630;2023-07-13T01:35:04;10.35;;;3.85;;
7523;SDS011;3803;51.666;7.630;2023-07-13T01:35:25;8.87;;;4.00;;
7523;SDS011;3803;51.666;7.630;2023-07-13T01:35:47;7.85;;;3.70;;
7523;SDS011;3803;51.666;7.630;2023-07-13T01:36:10;7.88;;;3.80;;
7523;SDS011;3803;51.666;7.630;2023-07-13T01:36:32;8.07;;;3.70;;
7523;SDS011;3803;51.666;7.630;2023-07-13T01:36:53;8.77;;;3.97;;
7523;SDS011;3803;51.666;7.630;2023-07-13T01:37:14;7.90;;;3.87;;
7523;SDS011;3803;51.666;7.630;2023-07-13T01:37:35;6.72;;;3.70;;
7523;SDS011;3803;51.666;7.630;2023-07-13T01:37:56;6.97;;;3.80;;
7523;SDS011;3803;51.666;7.630;2023-07-13T01:38:18;6.70;;;3.80;;
7523;SDS011;3803;51.666;7.630;2023-07-13T01:38:40;8.30;;;4.10;;
7523;SDS011;3803;51.666;7.630;2023-07-13T01:39:02;10.13;;;3.90;;
7523;SDS011;3803;51.666;7.630;2023-07-13T01:39:23;12.10;;;3.67;;
7523;SDS011;3803;51.666;7.630;2023-07-13T01:39:44;13.50;;;3.80;;
7523;SDS011;3803;51.666;7.630;2023-07-13T01:40:05;12.32;;;3.90;;
7523;SDS011;3803;51.666;7.630;2023-07-13T01:40:26;10.82;;;3.90;;
7523;SDS011;3803;51.666;7.630;2023-07-13T01:40:47;9.45;;;3.80;;
7523;SDS011;3803;51.666;7.630;2023-07-13T01:41:08;9.07;;;3.87;;
7523;SDS011;3803;51.666;7.630;2023-07-13T01:41:28;10.57;;;3.90;;
7523;SDS011;3803;51.666;7.630;2023-07-13T01:41:49;13.45;;;3.70;;
7523;SDS011;3803;51.666;7.630;2023-07-13T01:42:10;11.93;;;3.50;;
7523;SDS011;3803;51.666;7.630;2023-07-13T01:42:31;11.70;;;3.60;;
7523;SDS011;3803;51.666;7.630;2023-07-13T01:42:52;8.52;;;3.70;;
7523;SDS011;3803;51.666;7.630;2023-07-13T01:43:14;7.15;;;3.65;;
7523;SDS011;3803;51.666;7.630;2023-07-13T01:43:35;5.63;;;3.70;;
7523;SDS011;3803;51.666;7.630;2023-07-13T01:43:55;5.70;;;3.60;;
7523;SDS011;3803;51.666;7.630;2023-07-13T01:44:16;5.30;;;3.40;;
7523;SDS011;3803;51.666;7.630;2023-07-13T01:44:37;5.88;;;3.20;;
7523;SDS011;3803;51.666;7.630;2023-07-13T01:44:57;7.20;;;3.40;;
7523;SDS011;3803;51.666;7.630;2023-07-13T01:45:18;8.63;;;3.90;;
7523;SDS011;3803;51.666;7.630;2023-07-13T01:45:38;8.60;;;4.00;;
7523;SDS011;3803;51.666;7.630;2023-07-13T01:45:59;7.45;;;3.67;;
7523;SDS011;3803;51.666;7.630;2023-07-13T01:46:20;6.50;;;3.38;;
7523;SDS011;3803;51.666;7.630;2023-07-13T01:46:41;7.63;;;3.40;;
7523;SDS011;3803;51.666;7.630;2023-07-13T01:47:01;8.70;;;3.70;;
7523;SDS011;3803;51.666;7.630;2023-07-13T01:47:23;10.00;;;3.72;;
7523;SDS011;3803;51.666;7.630;2023-07-13T01:47:44;9.48;;;3.58;;
7523;SDS011;3803;51.666;7.630;2023-07-13T01:48:05;9.25;;;3.30;;
7523;SDS011;3803;51.666;7.630;2023-07-13T01:48:26;7.13;;;3.20;;
7523;SDS011;3803;51.666;7.630;2023-07-13T01:48:47;8.57;;;3.50;;
7523;SDS011;3803;51.666;7.630;2023-07-13T01:49:08;9.15;;;3.78;;
7523;SDS011;3803;51.666;7.630;2023-07-13T01:49:28;9.95;;;3.97;;
7523;SDS011;3803;51.666;7.630;2023-07-13T01:49:49;8.70;;;3.78;;
7523;SDS011;3803;51.666;7.630;2023-07-13T01:50:12;8.50;;;3.50;;
7523;SDS011;3803;51.666;7.630;2023-07-13T01:50:33;8.63;;;3.90;;
7523;SDS011;3803;51.666;7.630;2023-07-13T01:50:54;8.20;;;3.72;;
7523;SDS011;3803;51.666;7.630;2023-07-13T01:51:15;8.23;;;4.03;;
7523;SDS011;3803;51.666;7.630;2023-07-13T01:51:39;7.22;;;3.55;;
7523;SDS011;3803;51.666;7.630;2023-07-13T01:51:59;6.85;;;3.42;;
7523;SDS011;3803;51.666;7.630;2023-07-13T01:52:21;7.10;;;3.45;;
7523;SDS011;3803;51.666;7.630;2023-07-13T01:52:41;7.97;;;3.55;;
7523;SDS011;3803;51.666;7.630;2023-07-13T01:53:02;8.55;;;3.60;;
7523;SDS011;3803;51.666;7.630;2023-07-13T01:53:23;9.30;;;3.42;;
7523;SDS011;3803;51.666;7.630;2023-07-13T01:53:44;8.23;;;3.50;;
7523;SDS011;3803;51.666;7.630;2023-07-13T01:54:05;8.82;;;3.60;;
7523;SDS011;3803;51.666;7.630;2023-07-13T01:54:26;7.75;;;3.45;;
7523;SDS011;3803;51.666;7.630;2023-07-13T01:54:47;8.52;;;3.58;;
7523;SDS011;3803;51.666;7.630;2023-07-13T01:55:11;7.68;;;3.45;;
7523;SDS011;3803;51.666;7.630;2023-07-13T01:55:32;7.50;;;3.47;;
7523;SDS011;3803;51.666;7.630;2023-07-13T01:55:53;6.50;;;3.30;;
7523;SDS011;3803;51.666;7.630;2023-07-13T01:56:14;8.32;;;3.67;;
7523;SDS011;3803;51.666;7.630;2023-07-13T01:56:35;11.20;;;3.60;;
7523;SDS011;3803;51.666;7.630;2023-07-13T01:56:56;12.98;;;3.72;;
7523;SDS011;3803;51.666;7.630;2023-07-13T01:57:16;9.40;;;3.30;;
7523;SDS011;3803;51.666;7.630;2023-07-13T01:57:37;8.10;;;3.60;;
7523;SDS011;3803;51.666;7.630;2023-07-13T01:57:58;8.20;;;3.60;;
7523;SDS011;3803;51.666;7.630;2023-07-13T01:58:18;10.17;;;3.70;;
7523;SDS011;3803;51.666;7.630;2023-07-13T01:58:39;9.30;;;3.50;;
7523;SDS011;3803;51.666;7.630;2023-07-13T01:58:59;7.63;;;3.40;;
7523;SDS011;3803;51.666;7.630;2023-07-13T01:59:21;5.57;;;3.25;;
7523;SDS011;3803;51.666;7.630;2023-07-13T01:59:41;5.05;;;3.13;;
7523;SDS011;3803;51.666;7.630;2023-07-13T02:00:03;5.90;;;3.00;;
7523;SDS011;3803;51.666;7.630;2023-07-13T02:00:36;8.93;;;3.30;;
7523;SDS011;3803;51.666;7.630;2023-07-13T02:02:00;6.93;;;2.95;;
7523;SDS011;3803;51.666;7.630;2023-07-13T02:02:21;6.83;;;3.10;;
7523;SDS011;3803;51.666;7.630;2023-07-13T02:02:42;6.10;;;3.20;;
7523;SDS011;3803;51.666;7.630;2023-07-13T02:03:04;6.47;;;3.47;;
7523;SDS011;3803;51.666;7.630;2023-07-13T02:03:26;7.65;;;3.60;;
7523;SDS011;3803;51.666;7.630;2023-07-13T02:03:46;7.20;;;3.40;;
7523;SDS011;3803;51.666;7.630;2023-07-13T02:04:07;8.00;;;3.40;;
7523;SDS011;3803;51.666;7.630;2023-07-13T02:04:28;7.50;;;3.60;;
7523;SDS011;3803;51.666;7.630;2023-07-13T02:04:48;10.77;;;3.88;;
7523;SDS011;3803;51.666;7.630;2023-07-13T02:05:09;10.65;;;3.80;;
7523;SDS011;3803;51.666;7.630;2023-07-13T02:05:30;11.00;;;3.53;;
7523;SDS011;3803;51.666;7.630;2023-07-13T02:05:52;6.63;;;3.25;;
7523;SDS011;3803;51.666;7.630;2023-07-13T02:06:12;6.77;;;3.37;;
7523;SDS011;3803;51.666;7.630;2023-07-13T02:06:33;7.25;;;3.70;;
7523;SDS011;3803;51.666;7.630;2023-07-13T02:06:53;7.63;;;3.80;;
7523;SDS011;3803;51.666;7.630;2023-07-13T02:07:15;7.97;;;3.65;;
7523;SDS011;3803;51.666;7.630;2023-07-13T02:07:36;8.25;;;3.20;;
7523;SDS011;3803;51.666;7.630;2023-07-13T02:07:57;8.80;;;3.22;;
7523;SDS011;3803;51.666;7.630;2023-07-13T02:08:19;11.18;;;3.95;;
7523;SDS011;3803;51.666;7.630;2023-07-13T02:08:41;10.15;;;4.00;;
7523;SDS011;3803;51.666;7.630;2023-07-13T02:09:02;8.88;;;3.72;;
7523;SDS011;3803;51.666;7.630;2023-07-13T02:09:23;9.10;;;3.30;;
7523;SDS011;3803;51.666;7.630;2023-07-13T02:09:44;8.95;;;3.38;;
7523;SDS011;3803;51.666;7.630;2023-07-13T02:10:05;8.75;;;3.30;;
7523;SDS011;3803;51.666;7.630;2023-07-13T02:10:27;6.95;;;3.13;;
7523;SDS011;3803;51.666;7.630;2023-07-13T02:10:48;7.07;;;3.10;;
7523;SDS011;3803;51.666;7.630;2023-07-13T02:11:09;10.13;;;3.10;;
7523;SDS011;3803;51.666;7.630;2023-07-13T02:11:30;10.35;;;3.10;;
7523;SDS011;3803;51.666;7.630;2023-07-13T02:11:53;8.18;;;3.25;;
7523;SDS011;3803;51.666;7.630;2023-07-13T02:12:13;6.35;;;3.33;;
7523;SDS011;3803;51.666;7.630;2023-07-13T02:12:35;7.25;;;3.25;;
7523;SDS011;3803;51.666;7.630;2023-07-13T02:12:55;7.80;;;3.00;;
7523;SDS011;3803;51.666;7.630;2023-07-13T02:13:16;7.32;;;2.95;;
7523;SDS011;3803;51.666;7.630;2023-07-13T02:13:37;6.10;;;3.10;;
7523;SDS011;3803;51.666;7.630;2023-07-13T02:14:01;5.07;;;3.07;;
7523;SDS011;3803;51.666;7.630;2023-07-13T02:14:23;5.68;;;3.13;;
7523;SDS011;3803;51.666;7.630;2023-07-13T02:14:43;6.57;;;3.63;;
7523;SDS011;3803;51.666;7.630;2023-07-13T02:15:04;7.30;;;3.50;;
7523;SDS011;3803;51.666;7.630;2023-07-13T02:15:29;7.82;;;3.20;;
7523;SDS011;3803;51.666;7.630;2023-07-13T02:15:55;6.70;;;3.00;;
7523;SDS011;3803;51.666;7.630;2023-07-13T02:16:16;8.37;;;3.07;;
7523;SDS011;3803;51.666;7.630;2023-07-13T02:16:37;7.57;;;3.28;;
7523;SDS011;3803;51.666;7.630;2023-07-13T02:16:57;7.55;;;3.30;;
7523;SDS011;3803;51.666;7.630;2023-07-13T02:17:18;5.80;;;3.35;;
7523;SDS011;3803;51.666;7.630;2023-07-13T02:17:38;7.53;;;3.57;;
7523;SDS011;3803;51.666;7.630;2023-07-13T02:17:59;8.90;;;3.47;;
7523;SDS011;3803;51.666;7.630;2023-07-13T02:18:20;8.77;;;3.38;;
7523;SDS011;3803;51.666;7.630;2023-07-13T02:18:41;7.50;;;2.97;;
7523;SDS011;3803;51.666;7.630;2023-07-13T02:19:01;7.15;;;3.03;;
7523;SDS011;3803;51.666;7.630;2023-07-13T02:19:22;7.47;;;3.10;;
7523;SDS011;3803;51.666;7.630;2023-07-13T02:19:43;8.15;;;3.13;;
7523;SDS011;3803;51.666;7.630;2023-07-13T02:20:04;11.65;;;3.10;;
7523;SDS011;3803;51.666;7.630;2023-07-13T02:20:25;11.40;;;3.10;;
7523;SDS011;3803;51.666;7.630;2023-07-13T02:20:46;9.80;;;3.10;;
7523;SDS011;3803;51.666;7.630;2023-07-13T02:21:07;6.80;;;3.30;;
7523;SDS011;3803;51.666;7.630;2023-07-13T02:21:28;8.38;;;3.50;;